Time;durP1;ratioP1;P1;durP2;ratioP2;P2;SDS_P1;SDS_P2;PMS_P1;PMS_P2;Temp;Humidity;BMP_temperature;BMP_pressure;BME280_temperature;BME280_humidity;BME280_pressure;Samples;Min_cycle;Max_cycle;Signal;HPM_P1;HPM_P2
2022/06/04 00:01:01;;;;;;;3.62;3.25;;;;;;;25.47;51.23;101213.61;1754501;80;21032;-87
2022/06/04 00:03:27;;;;;;;4.37;3.17;;;;;;;25.46;51.20;101205.83;1754412;81;21211;-88
2022/06/04 00:05:56;;;;;;;3.42;2.98;;;;;;;25.47;51.17;101209.44;1754655;81;21043;-87
2022/06/04 00:08:22;;;;;;;4.25;3.30;;;;;;;25.46;51.17;101198.08;1740796;81;21495;-87
2022/06/04 00:16:09;;;;;;;3.70;3.20;;;;;;;25.45;51.13;101198.66;1702325;81;21216;-85
2022/06/04 00:18:35;;;;;;;3.50;3.15;;;;;;;25.45;51.13;101194.47;1736944;81;21034;-85
2022/06/04 00:21:02;;;;;;;3.80;3.42;;;;;;;25.45;51.11;101193.08;1737242;82;21062;-85
2022/06/04 00:23:28;;;;;;;3.72;2.98;;;;;;;25.45;51.12;101188.91;1736848;82;21553;-87
2022/06/04 00:25:57;;;;;;;4.60;3.02;;;;;;;25.45;51.13;101186.69;1737433;81;21081;-87
2022/06/04 00:28:24;;;;;;;3.87;2.98;;;;;;;25.45;51.11;101193.08;1737243;81;21978;-87
2022/06/04 00:30:51;;;;;;;3.08;2.77;;;;;;;25.46;51.11;101195.30;1736961;81;21038;-86
2022/06/04 00:33:17;;;;;;;3.25;2.90;;;;;;;25.44;51.10;101190.05;1737346;81;21042;-87
2022/06/04 00:35:45;;;;;;;3.62;3.17;;;;;;;25.45;51.09;101196.44;1737376;81;21112;-86
2022/06/04 00:38:14;;;;;;;3.77;3.15;;;;;;;25.45;51.11;101188.91;1736855;81;21041;-86
2022/06/04 00:40:55;;;;;;;4.30;3.10;;;;;;;25.44;51.08;101187.27;1737188;81;21074;-86
2022/06/04 00:43:21;;;;;;;4.10;3.20;;;;;;;25.45;51.07;101190.30;1736958;82;21069;-87
2022/06/04 00:46:17;;;;;;;3.15;2.85;;;;;;;25.44;51.07;101184.48;1737229;82;21552;-88
2022/06/04 00:48:44;;;;;;;3.00;2.65;;;;;;;25.44;51.06;101183.09;1712761;82;21882;-88
2022/06/04 00:51:10;;;;;;;3.40;2.83;;;;;;;25.44;51.04;101179.48;1737078;81;21038;-88
2022/06/04 00:53:37;;;;;;;3.80;2.95;;;;;;;25.44;51.04;101180.30;1737074;81;21033;-87
2022/06/04 00:56:37;;;;;;;3.67;3.10;;;;;;;25.44;51.03;101178.09;1736873;81;21066;-86
2022/06/04 00:59:27;;;;;;;3.30;3.00;;;;;;;25.43;51.06;101177.84;1737274;81;21447;-85
2022/06/04 01:02:17;;;;;;;2.75;2.45;;;;;;;25.43;51.02;101177.84;1680883;84;21097;-87
2022/06/04 01:05:10;;;;;;;3.72;3.27;;;;;;;25.43;51.02;101170.30;1739294;81;21118;-86
2022/06/04 01:08:02;;;;;;;3.45;2.87;;;;;;;25.42;51.02;101172.03;1712316;83;21077;-86
2022/06/04 01:10:48;;;;;;;3.22;2.83;;;;;;;25.41;51.02;101171.25;1688592;84;21036;-87
2022/06/04 01:13:29;;;;;;;3.50;3.00;;;;;;;25.41;51.02;101187.14;1699676;83;21392;-86
2022/06/04 01:16:19;;;;;;;3.08;2.70;;;;;;;25.40;51.02;101180.75;1720049;82;21012;-87
2022/06/04 01:19:09;;;;;;;3.87;2.95;;;;;;;25.40;51.03;101185.50;1715582;83;21067;-87
2022/06/04 01:22:08;;;;;;;3.58;3.17;;;;;;;25.39;51.03;101189.44;1713875;83;21761;-87
2022/06/04 01:24:59;;;;;;;3.55;3.25;;;;;;;25.39;51.03;101188.05;1715526;83;21085;-87
2022/06/04 01:27:43;;;;;;;5.17;3.00;;;;;;;25.38;51.02;101181.66;1718907;83;21119;-86
2022/06/04 01:30:24;;;;;;;3.67;2.95;;;;;;;25.37;51.04;101185.62;1727718;82;21095;-87
2022/06/04 01:33:07;;;;;;;3.10;2.55;;;;;;;25.36;51.06;101179.80;1727859;82;21060;-86
2022/06/04 01:35:44;;;;;;;3.72;3.08;;;;;;;25.36;51.05;101178.41;1727937;82;21633;-85
2022/06/04 01:38:22;;;;;;;3.47;2.92;;;;;;;25.36;51.04;101172.84;1744748;82;21056;-87
2022/06/04 01:41:05;;;;;;;4.03;2.77;;;;;;;25.37;51.04;101175.87;1744453;82;21076;-86
2022/06/04 01:43:48;;;;;;;3.30;2.72;;;;;;;25.38;51.04;101172.48;1744776;82;21061;-86
2022/06/04 01:46:28;;;;;;;3.35;3.00;;;;;;;25.38;51.03;101166.91;1744525;82;21096;-87
2022/06/04 01:49:25;;;;;;;3.27;2.98;;;;;;;25.37;51.01;101168.09;1724706;82;21157;-86
2022/06/04 01:51:55;;;;;;;2.87;2.55;;;;;;;25.37;51.01;101171.69;1748134;81;21338;-85
2022/06/04 01:54:30;;;;;;;3.80;3.15;;;;;;;25.37;51.00;101162.52;1744843;81;21095;-86
2022/06/04 01:57:10;;;;;;;4.20;3.35;;;;;;;25.37;51.01;101161.12;1743976;81;21040;-87
2022/06/04 01:59:47;;;;;;;3.37;3.00;;;;;;;25.36;51.01;101157.52;1744761;82;21071;-85
2022/06/04 02:02:19;;;;;;;3.55;3.10;;;;;;;25.37;50.99;101158.34;1743213;80;21145;-86
2022/06/04 02:04:50;;;;;;;3.20;2.80;;;;;;;25.37;50.98;101154.98;1744924;82;21592;-87
2022/06/04 02:07:31;;;;;;;;;;;;;;;25.36;50.98;101151.95;1748003;81;21134;-87
2022/06/04 02:10:28;;;;;;;3.30;3.00;;;;;;;25.37;50.97;101151.38;1725759;83;20498;-86
2022/06/04 02:12:58;;;;;;;3.05;2.67;;;;;;;25.36;50.99;101157.52;1753940;81;21071;-87
2022/06/04 02:15:33;;;;;;;3.30;3.00;;;;;;;25.36;50.99;101154.73;1754391;81;21970;-84
2022/06/04 02:18:00;;;;;;;2.98;2.65;;;;;;;25.34;50.99;101157.03;1752930;81;21001;-87
2022/06/04 02:20:26;;;;;;;3.00;2.70;;;;;;;25.36;51.00;101153.92;1754409;81;21520;-86
2022/06/04 02:22:53;;;;;;;3.05;2.58;;;;;;;25.36;50.98;101156.13;1754371;81;21519;-87
2022/06/04 02:25:21;;;;;;;3.12;2.58;;;;;;;25.36;50.98;101156.13;1754077;81;21051;-86
2022/06/04 02:27:49;;;;;;;3.65;2.65;;;;;;;25.36;50.95;101153.34;1754441;81;21137;-86
2022/06/04 02:30:16;;;;;;;4.47;2.98;;;;;;;25.37;50.98;101154.98;1754264;81;21020;-85
2022/06/04 02:33:17;;;;;;;3.70;2.80;;;;;;;25.37;50.92;101160.55;1754393;81;21032;-85
2022/06/04 02:36:03;;;;;;;3.33;3.02;;;;;;;25.37;50.94;101167.52;1754533;81;21066;-87
2022/06/04 02:38:47;;;;;;;3.22;2.67;;;;;;;25.37;50.90;101163.91;1719989;81;21072;-85
2022/06/04 02:41:25;;;;;;;3.10;2.80;;;;;;;25.37;50.90;101170.88;1754316;81;21660;-87
2022/06/04 02:44:08;;;;;;;3.50;3.12;;;;;;;25.36;50.88;101167.27;1753145;81;21126;-87
2022/06/04 02:46:44;;;;;;;3.17;2.75;;;;;;;25.36;50.89;101174.80;1754462;81;20976;-87
2022/06/04 02:49:18;;;;;;;3.08;2.77;;;;;;;25.36;50.89;101175.63;1744152;81;21031;-86
2022/06/04 02:51:47;;;;;;;3.65;2.75;;;;;;;25.37;50.87;101182.02;1718458;82;21014;-87
2022/06/04 02:54:18;;;;;;;3.67;2.80;;;;;;;25.37;50.88;101177.84;1718269;83;21164;-86
2022/06/04 02:56:45;;;;;;;3.05;2.70;;;;;;;25.37;50.87;101177.84;1718283;82;21011;-87
2022/06/04 02:59:12;;;;;;;3.47;2.87;;;;;;;25.36;50.85;101178.98;1718657;83;21517;-87
2022/06/04 03:01:41;;;;;;;4.97;3.17;;;;;;;25.36;50.86;101174.80;1691812;83;21054;-87
2022/06/04 03:04:08;;;;;;;2.87;2.60;;;;;;;25.36;50.82;101179.80;1718563;83;21607;-85
2022/06/04 03:06:34;;;;;;;2.90;2.60;;;;;;;25.37;50.81;101183.41;1718560;83;21215;-86
2022/06/04 03:09:04;;;;;;;3.72;3.00;;;;;;;25.37;50.81;101192.58;1713462;83;21140;-87
2022/06/04 03:11:31;;;;;;;2.83;2.50;;;;;;;25.37;50.81;101188.98;1709643;82;21117;-87
2022/06/04 03:13:57;;;;;;;4.30;2.83;;;;;;;25.36;50.79;101192.34;1717059;82;20973;-88
2022/06/04 03:16:24;;;;;;;2.90;2.47;;;;;;;25.38;50.79;101196.16;1754892;81;21106;-87
2022/06/04 03:18:50;;;;;;;3.30;3.00;;;;;;;25.38;50.74;101205.33;1728611;82;21132;-86
2022/06/04 03:21:17;;;;;;;3.05;2.65;;;;;;;25.38;50.73;101208.11;1732917;81;21512;-86
2022/06/04 03:23:43;;;;;;;3.33;2.72;;;;;;;25.38;50.72;101210.90;1732487;82;21137;-85
2022/06/04 03:26:10;;;;;;;3.15;2.50;;;;;;;25.38;50.72;101212.30;1732820;82;21042;-87
2022/06/04 03:28:36;;;;;;;3.00;2.60;;;;;;;25.37;50.70;101212.08;1732673;82;21042;-87
2022/06/04 03:31:03;;;;;;;4.05;2.85;;;;;;;25.39;50.69;101208.94;1732316;82;21543;-88
2022/06/04 03:33:29;;;;;;;3.52;2.60;;;;;;;25.39;50.65;101211.72;1737182;82;21046;-87
2022/06/04 03:35:55;;;;;;;3.25;2.67;;;;;;;25.39;50.62;101200.58;1737127;82;21094;-87
2022/06/04 03:38:22;;;;;;;3.02;2.72;;;;;;;25.39;50.62;101206.15;1758221;80;21093;-88
2022/06/04 03:40:48;;;;;;;3.02;2.70;;;;;;;25.39;50.60;101208.94;1737093;82;21102;-88
2022/06/04 03:43:14;;;;;;;3.33;2.95;;;;;;;25.39;50.60;101207.54;1732466;81;21141;-87
2022/06/04 03:45:41;;;;;;;2.98;2.35;;;;;;;25.38;50.60;101213.69;1732176;81;21455;-87
2022/06/04 03:48:07;;;;;;;2.87;2.60;;;;;;;25.39;50.60;101213.11;1732446;81;21105;-87
2022/06/04 03:50:34;;;;;;;2.60;2.20;;;;;;;25.38;50.58;101212.30;1732525;81;21109;-86
2022/06/04 03:53:00;;;;;;;2.90;2.60;;;;;;;25.38;50.57;101210.90;1732008;81;21053;-87
2022/06/04 03:55:27;;;;;;;4.22;2.60;;;;;;;25.39;50.56;101216.72;1736750;82;21117;-87
2022/06/04 03:57:54;;;;;;;2.65;2.45;;;;;;;25.40;50.55;101222.53;1736727;82;21034;-87
2022/06/04 04:00:32;;;;;;;2.80;2.50;;;;;;;25.40;50.54;101220.32;1736626;82;21126;-88
2022/06/04 04:03:03;;;;;;;3.92;2.87;;;;;;;25.39;50.53;101222.29;1727145;81;21038;-87
2022/06/04 04:05:52;;;;;;;3.37;2.20;;;;;;;25.40;50.52;101223.92;1708826;82;21543;-86
2022/06/04 04:08:21;;;;;;;2.37;2.12;;;;;;;25.39;50.51;101224.25;1700429;82;21152;-87
2022/06/04 04:10:47;;;;;;;3.12;2.60;;;;;;;25.39;50.51;101223.68;1712340;83;21140;-86
2022/06/04 04:13:14;;;;;;;3.25;2.40;;;;;;;25.39;50.49;101225.64;1688079;83;21439;-87
2022/06/04 04:15:41;;;;;;;2.90;2.55;;;;;;;25.39;50.46;101223.68;1718416;83;21136;-85
2022/06/04 04:18:07;;;;;;;3.35;2.55;;;;;;;25.39;50.47;101224.25;1718195;83;21124;-85
2022/06/04 04:20:36;;;;;;;4.65;2.85;;;;;;;25.40;50.47;101225.89;1718520;83;21511;-87
2022/06/04 04:23:09;;;;;;;3.02;2.60;;;;;;;25.39;50.46;101225.08;1718180;83;21058;-87
2022/06/04 04:25:35;;;;;;;3.10;2.45;;;;;;;25.40;50.46;101222.53;1718328;83;21050;-87
2022/06/04 04:28:02;;;;;;;3.37;2.45;;;;;;;25.40;50.44;101216.96;1718369;83;21584;-87
2022/06/04 04:30:31;;;;;;;3.12;2.35;;;;;;;25.41;50.42;101219.98;1718595;82;22224;-88
2022/06/04 04:32:57;;;;;;;3.37;2.50;;;;;;;25.41;50.39;101219.17;1718127;83;21170;-88
2022/06/04 04:35:27;;;;;;;2.92;2.55;;;;;;;25.41;50.35;101219.98;1718441;83;21399;-87
2022/06/04 04:37:54;;;;;;;3.70;2.55;;;;;;;25.41;50.32;101220.56;1718384;83;21464;-86
2022/06/04 04:40:22;;;;;;;3.30;2.30;;;;;;;25.41;50.28;101220.56;1718068;82;21591;-87
2022/06/04 04:42:48;;;;;;;3.83;2.70;;;;;;;25.42;50.22;101220.78;1718213;82;21098;-86
2022/06/04 04:45:15;;;;;;;3.33;2.42;;;;;;;25.41;50.17;101218.59;1695505;83;21269;-87
2022/06/04 04:47:43;;;;;;;3.10;2.65;;;;;;;25.42;50.15;101225.77;1717917;83;21006;-85
2022/06/04 04:50:17;;;;;;;3.40;2.67;;;;;;;25.43;50.11;101219.63;1718352;82;20954;-88
2022/06/04 04:52:44;;;;;;;3.50;2.70;;;;;;;25.42;50.12;101231.34;1716823;83;21030;-86
2022/06/04 04:55:10;;;;;;;2.90;2.62;;;;;;;25.43;50.10;101225.20;1718425;83;21575;-86
2022/06/04 04:57:37;;;;;;;2.65;2.35;;;;;;;25.43;50.09;101226.59;1718534;82;21752;-87
2022/06/04 05:00:05;;;;;;;2.72;2.42;;;;;;;25.44;50.04;101226.84;1718633;83;21042;-88
2022/06/04 05:02:31;;;;;;;2.37;2.17;;;;;;;25.44;50.01;101226.84;1718118;82;21061;-87
2022/06/04 05:04:58;;;;;;;3.55;2.45;;;;;;;25.44;50.00;101227.66;1718559;83;21077;-87
2022/06/04 05:07:24;;;;;;;3.05;2.37;;;;;;;25.44;49.96;101227.66;1718478;83;21085;-87
2022/06/04 05:09:51;;;;;;;3.15;2.70;;;;;;;25.44;49.94;101229.05;1718606;82;21129;-88
2022/06/04 05:12:17;;;;;;;2.47;2.27;;;;;;;25.45;49.92;101225.12;1718834;83;20995;-87
2022/06/04 05:14:44;;;;;;;2.83;2.47;;;;;;;25.45;49.90;101220.94;1698957;82;21070;-86
2022/06/04 05:17:10;;;;;;;3.05;2.62;;;;;;;25.45;49.87;101223.72;1714312;82;21026;-86
2022/06/04 05:19:37;;;;;;;2.80;2.50;;;;;;;25.45;49.86;101223.72;1692196;83;21054;-83
2022/06/04 05:22:03;;;;;;;2.83;2.55;;;;;;;25.46;49.84;101217.58;1718565;83;21041;-86
2022/06/04 05:24:33;;;;;;;2.90;2.40;;;;;;;25.46;49.86;101213.40;1691665;83;21638;-87
2022/06/04 05:27:01;;;;;;;2.85;2.47;;;;;;;25.46;49.81;101218.36;1718658;83;21065;-87
2022/06/04 05:29:28;;;;;;;4.25;2.35;;;;;;;25.47;49.82;101219.19;1718507;83;21072;-86
2022/06/04 05:31:54;;;;;;;2.67;2.30;;;;;;;25.47;49.80;101220.00;1700077;83;21544;-86
2022/06/04 05:34:27;;;;;;;3.77;2.25;;;;;;;25.48;49.80;101227.78;1718697;83;21108;-85
2022/06/04 05:36:54;;;;;;;3.40;2.70;;;;;;;25.47;49.80;101233.94;1718681;83;21090;-87
2022/06/04 05:39:21;;;;;;;4.25;2.50;;;;;;;25.48;49.79;101234.17;1718631;83;21101;-87
2022/06/04 05:41:53;;;;;;;2.58;2.35;;;;;;;25.49;49.80;101229.42;1718593;82;21058;-86
2022/06/04 05:44:19;;;;;;;2.50;2.25;;;;;;;25.48;49.80;101230.00;1718946;83;21046;-87
2022/06/04 05:46:46;;;;;;;3.05;2.50;;;;;;;25.50;49.79;101235.81;1718281;83;21053;-85
2022/06/04 05:49:13;;;;;;;2.85;2.35;;;;;;;25.49;49.80;101236.39;1718520;83;21077;-87
2022/06/04 05:51:46;;;;;;;2.95;2.27;;;;;;;25.49;49.80;101240.56;1718100;82;21046;-86
2022/06/04 05:54:13;;;;;;;2.47;2.27;;;;;;;25.50;49.79;101236.63;1718262;83;21108;-88
2022/06/04 05:56:43;;;;;;;3.15;2.47;;;;;;;25.50;49.80;101238.60;1718330;83;21603;-87
2022/06/04 05:59:13;;;;;;;3.12;2.62;;;;;;;25.51;49.80;101231.85;1718524;82;21761;-86
2022/06/04 06:01:40;;;;;;;;;;;;;;;25.51;49.80;101236.03;1720685;82;21413;-86
2022/06/04 06:04:08;;;;;;;2.75;2.33;;;;;;;25.49;49.82;101237.78;1718605;82;20518;-85
2022/06/04 06:06:36;;;;;;;2.52;2.33;;;;;;;25.50;49.82;101241.39;1718211;83;21052;-86
2022/06/04 06:09:05;;;;;;;2.52;2.27;;;;;;;25.50;49.85;101239.42;1690127;81;21184;-85
2022/06/04 06:11:31;;;;;;;2.87;2.20;;;;;;;25.51;49.86;101238.81;1709496;83;21813;-85
2022/06/04 06:13:58;;;;;;;2.50;2.30;;;;;;;25.50;49.86;101227.45;1709266;83;21050;-86
2022/06/04 06:16:29;;;;;;;2.70;2.40;;;;;;;25.51;49.87;101229.06;1708971;83;32548;-84
2022/06/04 06:18:56;;;;;;;2.80;2.50;;;;;;;25.50;49.88;101231.06;1731680;81;21061;-85
2022/06/04 06:21:25;;;;;;;3.22;2.35;;;;;;;25.53;49.89;101235.12;1736704;82;21094;-84
2022/06/04 06:23:52;;;;;;;3.75;2.22;;;;;;;25.53;49.90;101244.88;1754579;81;21521;-86
2022/06/04 06:26:24;;;;;;;4.10;2.80;;;;;;;25.53;49.90;101247.12;1736671;81;21014;-87
2022/06/04 06:28:50;;;;;;;3.00;2.47;;;;;;;25.54;49.90;101239.58;1732550;81;21528;-86
2022/06/04 06:31:20;;;;;;;3.25;2.72;;;;;;;25.53;49.91;101235.97;1732237;82;21013;-87
2022/06/04 06:33:46;;;;;;;3.57;2.63;;;;;;;25.53;49.92;101230.41;1733041;82;21113;-86
2022/06/04 06:36:14;;;;;;;3.27;2.72;;;;;;;25.53;49.90;101230.41;1732566;81;21787;-87
2022/06/04 06:38:40;;;;;;;4.20;2.60;;;;;;;25.54;49.95;101227.04;1683788;84;21066;-87
2022/06/04 06:41:07;;;;;;;3.02;2.58;;;;;;;25.55;49.95;101230.04;1707722;84;21568;-86
2022/06/04 06:43:36;;;;;;;2.72;2.50;;;;;;;25.55;49.96;101228.65;1707868;84;21533;-86
2022/06/04 06:46:08;;;;;;;3.98;2.62;;;;;;;25.54;49.97;101233.44;1707383;84;21061;-87
2022/06/04 06:48:36;;;;;;;3.25;2.70;;;;;;;25.56;50.00;101227.50;1707388;84;21982;-86
2022/06/04 06:51:11;;;;;;;3.00;2.70;;;;;;;25.54;50.03;101230.65;1707492;82;21070;-87
2022/06/04 06:53:38;;;;;;;3.52;2.70;;;;;;;25.53;50.05;101234.58;1707276;84;21066;-87
2022/06/04 06:56:23;;;;;;;3.12;2.77;;;;;;;25.55;50.04;101228.65;1707616;84;21126;-86
2022/06/04 06:58:50;;;;;;;4.22;2.85;;;;;;;25.55;50.08;101223.89;1706878;82;21082;-86
2022/06/04 07:01:16;;;;;;;3.40;2.67;;;;;;;25.56;50.10;101224.72;1707545;82;21577;-87
2022/06/04 07:03:43;;;;;;;2.83;2.40;;;;;;;25.54;50.11;101219.50;1685046;84;21051;-88
2022/06/04 07:06:11;;;;;;;3.67;3.10;;;;;;;25.54;50.15;101215.33;1693307;84;21069;-87
2022/06/04 07:08:39;;;;;;;3.00;2.70;;;;;;;25.55;50.15;101216.93;1698822;84;21605;-87
2022/06/04 07:11:05;;;;;;;3.45;2.80;;;;;;;25.56;50.19;101213.56;1717944;81;21102;-87
2022/06/04 07:13:32;;;;;;;3.30;2.75;;;;;;;25.56;50.19;101213.56;1695721;83;21123;-85
2022/06/04 07:15:58;;;;;;;2.83;2.55;;;;;;;25.56;50.20;101208.81;1711135;83;21540;-84
2022/06/04 07:18:24;;;;;;;3.02;2.75;;;;;;;25.57;50.23;101209.63;1711507;83;21114;-86
2022/06/04 07:20:51;;;;;;;3.22;2.60;;;;;;;25.57;50.25;101206.27;1711538;83;21155;-85
2022/06/04 07:23:18;;;;;;;2.85;2.55;;;;;;;25.57;50.26;101213.81;1711788;83;21599;-87
2022/06/04 07:25:46;;;;;;;4.03;2.80;;;;;;;25.58;50.25;101212.66;1711682;83;21316;-85
2022/06/04 07:28:18;;;;;;;4.80;2.77;;;;;;;25.58;50.28;101199.55;1711151;83;21520;-86
2022/06/04 07:30:45;;;;;;;2.92;2.62;;;;;;;25.57;50.29;101199.87;1712766;82;21011;-87
2022/06/04 07:33:11;;;;;;;3.15;2.85;;;;;;;25.59;50.28;101203.95;1719823;83;21034;-87
2022/06/04 07:35:38;;;;;;;2.67;2.47;;;;;;;25.60;50.31;101200.58;1719748;83;21027;-87
2022/06/04 07:38:10;;;;;;;2.90;2.58;;;;;;;25.61;50.32;101206.40;1719804;83;21094;-86
2022/06/04 07:40:38;;;;;;;3.60;2.90;;;;;;;25.60;50.32;101206.97;1719515;82;21675;-87
2022/06/04 07:43:10;;;;;;;2.90;2.60;;;;;;;25.61;50.36;101203.03;1730165;82;21060;-87
2022/06/04 07:45:37;;;;;;;3.17;2.60;;;;;;;25.62;50.35;101204.67;1744980;82;21044;-86
2022/06/04 07:48:04;;;;;;;2.92;2.60;;;;;;;25.62;50.35;101203.28;1745020;82;21074;-85
2022/06/04 07:50:31;;;;;;;3.08;2.55;;;;;;;25.62;50.36;101201.89;1744610;81;21207;-87
2022/06/04 07:52:58;;;;;;;3.72;2.80;;;;;;;25.63;50.37;101197.13;1744854;81;21590;-86
2022/06/04 07:55:27;;;;;;;2.60;2.35;;;;;;;25.63;50.37;101190.17;1744946;82;21063;-86
2022/06/04 07:57:54;;;;;;;3.02;2.70;;;;;;;25.64;50.38;101193.16;1723675;82;21047;-86
2022/06/04 08:00:22;;;;;;;3.33;2.87;;;;;;;25.63;50.39;101186.77;1744804;82;21095;-86
2022/06/04 08:02:49;;;;;;;3.50;2.70;;;;;;;25.63;50.39;101180.41;1744689;80;21079;-87
2022/06/04 08:05:16;;;;;;;3.12;2.65;;;;;;;25.62;50.38;101186.56;1744609;82;21091;-88
2022/06/04 08:07:42;;;;;;;3.67;2.95;;;;;;;25.64;50.42;101191.77;1744715;82;21047;-86
2022/06/04 08:10:09;;;;;;;3.08;2.70;;;;;;;25.64;50.41;101188.98;1742597;82;21070;-86
2022/06/04 08:12:41;;;;;;;3.12;2.83;;;;;;;25.64;50.41;101193.16;1736866;81;21093;-86
2022/06/04 08:15:06;;;;;;;3.30;3.00;;;;;;;25.64;50.43;101186.20;1737492;81;22557;-87
2022/06/04 08:17:33;;;;;;;2.98;2.67;;;;;;;25.63;50.43;101179.81;1736991;81;21043;-86
2022/06/04 08:19:59;;;;;;;2.85;2.40;;;;;;;25.63;50.43;101185.38;1736974;81;21472;-87
2022/06/04 08:22:26;;;;;;;3.35;2.80;;;;;;;25.64;50.43;101189.80;1737119;82;21093;-87
2022/06/04 08:24:52;;;;;;;2.92;2.70;;;;;;;25.64;50.44;101181.45;1737486;81;21073;-87
2022/06/04 08:27:19;;;;;;;3.37;2.72;;;;;;;25.64;50.44;101175.05;1736932;81;21857;-86
2022/06/04 08:29:45;;;;;;;3.70;2.72;;;;;;;25.65;50.46;101172.52;1737013;81;21076;-87
2022/06/04 08:32:18;;;;;;;3.27;2.80;;;;;;;25.66;50.44;101175.54;1713963;82;21536;-85
2022/06/04 08:34:44;;;;;;;2.80;2.42;;;;;;;25.66;50.47;101175.54;1736938;82;21053;-86
2022/06/04 08:37:11;;;;;;;2.80;2.42;;;;;;;25.65;50.47;101174.72;1737202;81;21018;-87
2022/06/04 08:39:37;;;;;;;2.58;2.37;;;;;;;25.66;50.46;101172.17;1737068;81;21060;-87
2022/06/04 08:42:15;;;;;;;2.95;2.62;;;;;;;25.67;50.47;101175.78;1713598;82;20998;-87
2022/06/04 08:44:46;;;;;;;2.70;2.50;;;;;;;25.66;50.49;101168.00;1735282;81;21026;-86
2022/06/04 08:47:27;;;;;;;2.65;2.45;;;;;;;25.67;50.49;101179.39;1734957;80;21063;-86
2022/06/04 08:50:11;;;;;;;2.52;2.30;;;;;;;25.66;50.49;101172.75;1724154;81;21042;-86
2022/06/04 08:52:42;;;;;;;2.65;2.37;;;;;;;25.66;50.49;101169.97;1736708;81;21516;-87
2022/06/04 08:59:02;;;;;;;3.37;2.90;;;;;;;25.66;50.51;101167.18;1728986;81;21611;-87
2022/06/04 09:01:38;;;;;;;2.80;2.50;;;;;;;25.65;50.50;101166.36;1729381;81;21117;-87
2022/06/04 09:04:31;;;;;;;2.65;2.45;;;;;;;25.65;50.50;101170.54;1729188;82;21073;-85
2022/06/04 09:07:24;;;;;;;2.60;2.40;;;;;;;25.66;50.53;101171.36;1739476;80;21874;-87
2022/06/04 09:10:14;;;;;;;2.95;2.60;;;;;;;25.64;50.54;101168.91;1728191;82;21085;-86
2022/06/04 09:12:51;;;;;;;2.60;2.40;;;;;;;25.64;50.54;101170.30;1712926;83;21303;-87
2022/06/04 09:15:29;;;;;;;3.10;2.80;;;;;;;25.64;50.55;101164.73;1702476;82;21103;-87
2022/06/04 09:18:01;;;;;;;2.90;2.58;;;;;;;25.63;50.56;101171.45;1715197;83;21063;-86
2022/06/04 09:20:46;;;;;;;2.72;2.52;;;;;;;25.64;50.60;101164.73;1726732;82;21518;-86
2022/06/04 09:23:22;;;;;;;3.33;2.92;;;;;;;25.65;50.59;101161.36;1744619;82;21084;-86
2022/06/04 09:25:57;;;;;;;2.70;2.42;;;;;;;25.64;50.62;101154.97;1744722;81;21099;-87
2022/06/04 09:29:05;;;;;;;3.08;2.77;;;;;;;25.65;50.62;101164.97;1744430;81;21111;-86
2022/06/04 09:31:46;;;;;;;3.22;2.70;;;;;;;25.64;50.62;101156.36;1744624;82;21515;-86
2022/06/04 09:34:26;;;;;;;2.90;2.58;;;;;;;25.64;50.63;101152.19;1744773;82;21943;-86
2022/06/04 09:36:53;;;;;;;3.72;2.87;;;;;;;25.65;50.62;101152.43;1744748;81;21087;-86
2022/06/04 09:39:31;;;;;;;2.50;2.30;;;;;;;25.65;50.63;101148.83;1724536;82;21080;-86
2022/06/04 09:42:04;;;;;;;2.60;2.08;;;;;;;25.65;50.64;101142.67;1723772;82;21060;-86
2022/06/04 09:44:33;;;;;;;2.60;2.40;;;;;;;25.65;50.66;101135.70;1744815;82;21044;-86
2022/06/04 09:47:18;;;;;;;3.15;2.70;;;;;;;25.66;50.66;101137.92;1723472;82;21204;-87
2022/06/04 09:49:59;;;;;;;4.35;2.77;;;;;;;25.66;50.66;101127.59;1743553;81;21013;-87
2022/06/04 09:52:38;;;;;;;3.47;2.60;;;;;;;25.66;50.68;101125.37;1744484;82;21043;-87
2022/06/04 09:55:21;;;;;;;2.70;2.50;;;;;;;25.66;50.68;101132.34;1744908;81;21080;-87
2022/06/04 09:58:22;;;;;;;2.77;2.58;;;;;;;25.66;50.68;101133.16;1728971;82;21101;-86
2022/06/04 10:01:03;;;;;;;3.87;2.65;;;;;;;25.68;50.67;101128.63;1719822;83;21122;-88
2022/06/04 10:03:33;;;;;;;4.45;2.70;;;;;;;25.68;50.68;101128.63;1719490;83;21025;-86
2022/06/04 10:06:16;;;;;;;3.25;2.90;;;;;;;25.67;50.68;101119.47;1739968;82;21052;-87
2022/06/04 10:11:51;;;;;;;3.00;2.70;;;;;;;25.66;50.69;101108.08;1728821;81;21059;-87
2022/06/04 10:14:34;;;;;;;2.40;2.20;;;;;;;25.67;50.69;101114.48;1753599;81;21784;-87
2022/06/04 10:17:01;;;;;;;2.62;2.37;;;;;;;25.66;50.70;101115.63;1753157;81;21079;-87
2022/06/04 10:19:29;;;;;;;3.20;2.90;;;;;;;25.67;50.72;101113.90;1754126;81;21168;-87
2022/06/04 10:22:11;;;;;;;4.37;2.92;;;;;;;25.67;50.73;101108.33;1754199;81;21035;-87
2022/06/04 10:24:57;;;;;;;3.22;2.45;;;;;;;25.67;50.73;101105.54;1754199;81;21091;-87
2022/06/04 10:27:44;;;;;;;3.10;2.80;;;;;;;25.68;50.74;101099.36;1754289;81;21087;-87
2022/06/04 10:30:31;;;;;;;3.50;2.47;;;;;;;25.67;50.74;101103.33;1754007;81;21028;-87
2022/06/04 10:33:26;;;;;;;3.70;2.92;;;;;;;25.66;50.74;101108.08;1744818;81;21385;-87
2022/06/04 10:36:21;;;;;;;3.20;2.40;;;;;;;25.68;50.75;101111.33;1753784;81;21043;-86
2022/06/04 10:38:55;;;;;;;2.70;2.45;;;;;;;25.67;50.79;101104.15;1754204;81;21390;-88
2022/06/04 10:41:36;;;;;;;2.72;2.40;;;;;;;25.67;50.78;101099.15;1753972;81;21190;-86
2022/06/04 10:44:31;;;;;;;2.90;2.70;;;;;;;25.67;50.79;101101.36;1754145;81;21586;-87
2022/06/04 10:47:22;;;;;;;2.50;2.30;;;;;;;25.67;50.81;101097.75;1753759;81;21079;-84
2022/06/04 10:50:18;;;;;;;2.92;2.50;;;;;;;25.67;50.79;101087.42;1753625;81;21254;-86
2022/06/04 10:52:49;;;;;;;2.80;2.52;;;;;;;25.66;50.81;101078.01;1753097;81;21071;-87
2022/06/04 10:55:44;;;;;;;2.60;2.40;;;;;;;25.66;50.80;101070.47;1754269;81;21888;-87
2022/06/04 10:58:31;;;;;;;2.58;2.37;;;;;;;25.67;50.82;101064.31;1753950;81;21566;-86
2022/06/04 11:01:21;;;;;;;3.08;2.77;;;;;;;25.66;50.81;101055.14;1754157;81;21024;-87
2022/06/04 11:04:10;;;;;;;3.12;2.83;;;;;;;25.66;50.81;101049.56;1753748;81;21068;-86
2022/06/04 11:06:54;;;;;;;3.25;2.58;;;;;;;25.67;50.84;101054.56;1748285;81;21107;-86
2022/06/04 11:09:38;;;;;;;2.85;2.55;;;;;;;25.66;50.83;101052.35;1753226;81;22067;-86
2022/06/04 11:12:37;;;;;;;2.87;2.40;;;;;;;25.67;50.87;101051.20;1742859;81;21573;-85
2022/06/04 11:15:20;;;;;;;3.10;2.50;;;;;;;25.67;50.87;101048.98;1726549;81;21094;-86
2022/06/04 11:18:04;;;;;;;2.70;2.50;;;;;;;25.67;50.87;101040.63;1729999;81;21137;-86
2022/06/04 11:20:34;;;;;;;2.90;2.60;;;;;;;25.66;50.88;101041.78;1708599;82;21066;-87
2022/06/04 11:23:42;;;;;;;2.52;2.33;;;;;;;25.67;50.89;101042.02;1709254;83;21235;-87
2022/06/04 11:26:31;;;;;;;3.05;2.75;;;;;;;25.67;50.91;101047.02;1708891;82;21042;-87
2022/06/04 11:28:59;;;;;;;3.10;2.67;;;;;;;25.67;50.89;101033.66;1708623;82;21035;-87
2022/06/04 11:31:45;;;;;;;3.37;2.60;;;;;;;25.67;50.88;101025.30;1708581;84;21110;-86
2022/06/04 11:34:35;;;;;;;2.87;2.60;;;;;;;25.67;50.89;101023.34;1709085;82;21049;-86
2022/06/04 11:37:25;;;;;;;2.72;2.30;;;;;;;25.67;50.89;101015.55;1708326;84;22416;-87
2022/06/04 11:40:25;;;;;;;3.42;2.55;;;;;;;25.67;50.91;101008.59;1708869;83;21097;-87
2022/06/04 11:42:57;;;;;;;2.87;2.55;;;;;;;25.68;50.91;101013.79;1708822;82;21101;-87
2022/06/04 11:45:41;;;;;;;2.90;2.60;;;;;;;25.67;50.91;101005.80;1708938;82;21210;-86
2022/06/04 11:48:29;;;;;;;2.70;2.50;;;;;;;25.67;50.92;101003.02;1708983;82;21101;-86
2022/06/04 11:51:19;;;;;;;2.87;2.67;;;;;;;25.68;50.94;100997.65;1709029;82;21393;-86
2022/06/04 11:54:03;;;;;;;3.42;2.80;;;;;;;25.67;50.94;100992.68;1674945;82;21050;-87
2022/06/04 11:56:46;;;;;;;2.70;2.35;;;;;;;25.68;50.95;100994.86;1724955;81;21503;-87
2022/06/04 11:59:36;;;;;;;2.65;2.45;;;;;;;25.68;50.94;100997.65;1696634;82;21799;-86
2022/06/04 12:02:20;;;;;;;3.65;2.60;;;;;;;25.68;50.97;100994.28;1737166;81;21480;-87
2022/06/04 12:04:55;;;;;;;2.83;2.52;;;;;;;25.69;50.97;100989.53;1725658;82;21153;-86
2022/06/04 12:07:30;;;;;;;3.02;2.65;;;;;;;25.68;50.98;100991.50;1737120;81;21022;-87
2022/06/04 12:10:23;;;;;;;3.10;2.50;;;;;;;25.69;50.99;100992.31;1733824;81;21137;-87